Time;durP1;ratioP1;P1;durP2;ratioP2;P2;SDS_P1;SDS_P2;PMS_P1;PMS_P2;Temp;Humidity;BMP_temperature;BMP_pressure;BME280_temperature;BME280_humidity;BME280_pressure;Samples;Min_cycle;Max_cycle;Signal;HPM_P1;HPM_P2
2023/12/04 00:01:08;;;;;;;31.23;19.17;;;-2.70;99.90;;;;;;5031555;28;20529;-63
2023/12/04 00:03:34;;;;;;;35.87;19.90;;;-2.70;99.90;;;;;;5031719;28;20501;-63
2023/12/04 00:05:59;;;;;;;35.13;19.90;;;-2.70;99.90;;;;;;5028721;28;20310;-63
2023/12/04 00:08:25;;;;;;;32.80;18.07;;;-2.70;99.90;;;;;;5032306;28;20254;-64
2023/12/04 00:10:51;;;;;;;34.23;19.10;;;-2.80;99.90;;;;;;5031142;28;20190;-65
2023/12/04 00:13:17;;;;;;;30.10;16.77;;;-2.80;99.90;;;;;;5031323;28;20648;-62
2023/12/04 00:15:44;;;;;;;26.63;17.63;;;-2.80;99.90;;;;;;5036110;28;20512;-64
2023/12/04 00:18:09;;;;;;;26.87;15.10;;;-2.80;99.90;;;;;;5035787;28;20258;-64
2023/12/04 00:20:35;;;;;;;27.17;17.20;;;-2.80;99.90;;;;;;5030847;28;20517;-63
2023/12/04 00:23:01;;;;;;;28.43;16.30;;;-2.80;99.90;;;;;;5028640;28;20709;-64
2023/12/04 00:25:26;;;;;;;34.00;15.97;;;-2.90;99.90;;;;;;5028978;28;20175;-63
2023/12/04 00:27:52;;;;;;;32.80;17.57;;;-2.90;99.90;;;;;;5016605;28;20269;-64
2023/12/04 00:30:19;;;;;;;38.63;20.50;;;-2.90;99.90;;;;;;5037591;28;20658;-63
2023/12/04 00:32:44;;;;;;;32.53;18.63;;;-2.90;99.90;;;;;;5018663;28;20422;-63
2023/12/04 00:35:10;;;;;;;29.43;17.87;;;-2.90;99.90;;;;;;4982579;28;20767;-63
2023/12/04 00:37:38;;;;;;;30.87;15.93;;;-2.90;99.90;;;;;;5028901;28;20176;-65
2023/12/04 00:40:05;;;;;;;31.30;16.47;;;-2.90;99.90;;;;;;5018326;28;20188;-65
2023/12/04 00:42:31;;;;;;;26.37;16.60;;;-2.90;99.90;;;;;;5003867;28;20411;-65
2023/12/04 00:44:57;;;;;;;33.77;18.10;;;-2.90;99.90;;;;;;5019822;28;20415;-63
2023/12/04 00:47:22;;;;;;;40.70;19.23;;;-2.90;99.90;;;;;;5013156;28;20333;-63
2023/12/04 00:49:48;;;;;;;36.47;18.63;;;-2.90;99.90;;;;;;5028822;28;20438;-63
2023/12/04 00:52:14;;;;;;;33.10;19.50;;;-2.90;99.90;;;;;;5031305;28;20176;-65
2023/12/04 00:54:42;;;;;;;38.23;18.97;;;-2.90;99.90;;;;;;5027209;28;20246;-63
2023/12/04 00:57:08;;;;;;;41.47;19.20;;;-2.90;99.90;;;;;;5030280;28;20179;-64
2023/12/04 00:59:34;;;;;;;35.87;20.50;;;-2.90;99.90;;;;;;5031720;28;20756;-64
2023/12/04 01:02:00;;;;;;;40.90;19.30;;;-2.90;99.90;;;;;;5035898;28;20420;-64
2023/12/04 01:04:25;;;;;;;38.07;20.90;;;-2.90;99.90;;;;;;5033400;28;20522;-63
2023/12/04 01:06:52;;;;;;;37.07;19.27;;;-2.90;99.90;;;;;;5031285;28;20454;-64
2023/12/04 01:09:17;;;;;;;41.27;19.60;;;-2.90;99.90;;;;;;5035405;28;20167;-64
2023/12/04 01:11:43;;;;;;;46.63;20.30;;;-2.90;99.90;;;;;;5027500;28;20438;-63
2023/12/04 01:14:08;;;;;;;34.67;20.77;;;-2.90;99.90;;;;;;5033631;28;20168;-63
2023/12/04 01:16:34;;;;;;;37.10;18.17;;;-2.90;99.90;;;;;;5030568;28;20187;-64
2023/12/04 01:19:00;;;;;;;36.20;21.03;;;-2.90;99.90;;;;;;5016229;28;20175;-64
2023/12/04 01:21:25;;;;;;;32.33;18.67;;;-3.00;99.90;;;;;;5036091;28;20681;-64
2023/12/04 01:23:51;;;;;;;35.83;17.30;;;-3.00;99.90;;;;;;5030548;28;20207;-63
2023/12/04 01:26:16;;;;;;;34.90;19.93;;;-3.00;99.90;;;;;;5029773;28;20179;-63
2023/12/04 01:28:42;;;;;;;29.07;17.83;;;-3.00;99.90;;;;;;5027758;28;20261;-64
2023/12/04 01:31:08;;;;;;;37.63;19.70;;;-3.00;99.90;;;;;;5012573;28;20210;-64
2023/12/04 01:33:34;;;;;;;32.53;19.67;;;-3.10;99.90;;;;;;5014473;28;20638;-61
2023/12/04 01:36:01;;;;;;;31.67;17.47;;;-3.10;99.90;;;;;;5025094;28;20417;-64
2023/12/04 01:38:27;;;;;;;35.23;18.97;;;-3.10;99.90;;;;;;5029670;28;20425;-64
2023/12/04 01:40:52;;;;;;;41.97;19.33;;;-3.20;99.90;;;;;;5029698;28;20930;-64
2023/12/04 01:43:18;;;;;;;33.23;18.50;;;-3.20;99.90;;;;;;5031388;28;20181;-64
2023/12/04 01:45:44;;;;;;;42.30;20.70;;;-3.20;99.90;;;;;;5032268;28;20259;-64
2023/12/04 01:48:13;;;;;;;35.33;19.30;;;-3.20;99.90;;;;;;5033521;28;20244;-64
2023/12/04 01:50:39;;;;;;;39.13;17.57;;;-3.20;99.90;;;;;;5032111;28;20671;-63
2023/12/04 01:53:05;;;;;;;31.53;20.10;;;-3.20;99.90;;;;;;5032786;28;20477;-64
2023/12/04 01:55:33;;;;;;;29.73;18.73;;;-3.20;99.90;;;;;;5036424;28;20414;-64
2023/12/04 01:58:00;;;;;;;35.00;19.47;;;-3.20;99.90;;;;;;5028279;28;20444;-64
2023/12/04 02:00:26;;;;;;;35.63;19.20;;;-3.20;99.90;;;;;;5028305;28;20449;-64
2023/12/04 02:02:52;;;;;;;35.10;18.73;;;-3.20;99.90;;;;;;5031554;28;20480;-64
2023/12/04 02:05:19;;;;;;;37.30;19.33;;;-3.10;99.90;;;;;;5028308;28;20526;-64
2023/12/04 02:07:45;;;;;;;39.77;20.20;;;-3.20;99.90;;;;;;5030776;28;20210;-63
2023/12/04 02:10:11;;;;;;;33.37;19.60;;;-3.20;99.90;;;;;;5032103;28;20438;-63
2023/12/04 02:12:37;;;;;;;37.10;20.40;;;-3.20;99.90;;;;;;5029132;28;20510;-63
2023/12/04 02:15:03;;;;;;;40.87;21.20;;;-3.20;99.90;;;;;;5028626;28;20194;-64
2023/12/04 02:17:29;;;;;;;30.47;18.23;;;-3.10;99.90;;;;;;5030903;28;20414;-64
2023/12/04 02:19:55;;;;;;;37.70;20.50;;;-3.00;99.90;;;;;;5033456;28;20434;-64
2023/12/04 02:22:20;;;;;;;32.70;18.00;;;-3.10;99.90;;;;;;5031870;28;20433;-66
2023/12/04 02:24:46;;;;;;;44.17;21.17;;;-3.10;99.90;;;;;;5028182;28;20183;-63
2023/12/04 02:27:20;;;;;;;35.10;19.73;;;-3.10;99.90;;;;;;5028724;28;20325;-64
2023/12/04 02:29:56;;;;;;;44.37;22.50;;;-3.10;99.90;;;;;;5028535;28;20407;-64
2023/12/04 02:32:24;;;;;;;38.77;20.40;;;-3.10;99.90;;;;;;5031245;28;20417;-63
2023/12/04 02:34:52;;;;;;;43.27;21.83;;;-3.10;99.90;;;;;;5035717;28;20422;-63
2023/12/04 02:37:19;;;;;;;39.43;18.60;;;-3.10;99.90;;;;;;5040400;28;20434;-63
2023/12/04 02:39:45;;;;;;;38.03;19.97;;;-3.20;99.90;;;;;;5041312;28;20492;-64
2023/12/04 02:42:13;;;;;;;37.73;19.80;;;-3.20;99.90;;;;;;5036944;28;20413;-63
2023/12/04 02:44:39;;;;;;;34.97;20.17;;;-3.20;99.90;;;;;;5036665;28;20267;-63
2023/12/04 02:47:05;;;;;;;39.80;21.00;;;-3.20;99.90;;;;;;5027745;28;20565;-63
2023/12/04 02:49:30;;;;;;;33.53;18.23;;;-3.20;99.90;;;;;;5033133;28;20203;-63
2023/12/04 02:51:57;;;;;;;40.27;19.70;;;-3.20;99.90;;;;;;5032720;28;20282;-63
2023/12/04 02:54:23;;;;;;;36.03;18.93;;;-3.20;99.90;;;;;;5036318;28;20184;-63
2023/12/04 02:56:48;;;;;;;34.00;21.27;;;-3.20;99.90;;;;;;5032898;28;20426;-63
2023/12/04 02:59:14;;;;;;;41.33;19.40;;;-3.20;99.90;;;;;;5033156;28;20592;-63
2023/12/04 03:01:39;;;;;;;35.33;18.97;;;-3.20;99.90;;;;;;5032039;28;20242;-63
2023/12/04 03:04:05;;;;;;;31.13;18.70;;;-3.30;99.90;;;;;;5026849;28;20627;-63
2023/12/04 03:06:31;;;;;;;30.83;18.27;;;-3.20;99.90;;;;;;5032787;28;20208;-65
2023/12/04 03:08:59;;;;;;;34.90;20.20;;;-3.20;99.90;;;;;;5034637;28;20176;-64
2023/12/04 03:11:24;;;;;;;35.07;19.23;;;-3.20;99.90;;;;;;5019331;28;20215;-64
2023/12/04 03:13:50;;;;;;;37.70;18.33;;;-3.30;99.90;;;;;;5034438;28;20505;-64
2023/12/04 03:16:19;;;;;;;39.53;21.50;;;-3.30;99.90;;;;;;5038786;28;20250;-63
2023/12/04 03:18:44;;;;;;;33.60;21.93;;;-3.20;99.90;;;;;;5032058;28;20180;-64
2023/12/04 03:21:10;;;;;;;35.43;22.20;;;-3.30;99.90;;;;;;5031545;28;20804;-64
2023/12/04 03:23:36;;;;;;;37.50;19.50;;;-3.30;99.90;;;;;;5035694;28;20176;-64
2023/12/04 03:26:02;;;;;;;30.63;20.70;;;-3.30;99.90;;;;;;5034977;28;20426;-64
2023/12/04 03:28:28;;;;;;;30.93;17.87;;;-3.30;99.90;;;;;;5018018;28;20202;-64
2023/12/04 03:30:53;;;;;;;38.43;18.53;;;-3.20;99.90;;;;;;5031815;28;20801;-64
2023/12/04 03:33:19;;;;;;;38.27;22.63;;;-3.20;99.90;;;;;;5030304;28;20498;-64
2023/12/04 03:35:44;;;;;;;27.40;19.03;;;-3.20;99.90;;;;;;5032062;28;20171;-64
2023/12/04 03:38:10;;;;;;;32.03;17.77;;;-3.20;99.90;;;;;;5031283;28;20175;-64
2023/12/04 03:40:36;;;;;;;37.50;20.20;;;-3.20;99.90;;;;;;5032785;28;20196;-63
2023/12/04 03:43:01;;;;;;;35.40;18.53;;;-3.20;99.90;;;;;;5036793;28;20298;-64
2023/12/04 03:45:27;;;;;;;36.20;18.97;;;-3.20;99.90;;;;;;5029860;28;20171;-64
2023/12/04 03:47:53;;;;;;;36.20;19.43;;;-3.20;99.90;;;;;;5038818;28;20203;-64
2023/12/04 03:50:18;;;;;;;36.13;19.93;;;-3.10;99.90;;;;;;5032462;28;20438;-62
2023/12/04 03:52:44;;;;;;;34.87;19.47;;;-3.10;99.90;;;;;;5033189;28;20237;-63
2023/12/04 03:55:09;;;;;;;32.20;18.30;;;-3.10;99.90;;;;;;5032743;28;20179;-64
2023/12/04 03:57:35;;;;;;;25.80;15.73;;;-3.10;99.90;;;;;;5036275;28;20563;-64
2023/12/04 04:00:01;;;;;;;32.27;20.30;;;-3.10;99.90;;;;;;5036704;28;20235;-63
2023/12/04 04:02:28;;;;;;;30.40;16.60;;;-3.10;99.90;;;;;;5032494;28;20533;-64
2023/12/04 04:04:54;;;;;;;38.13;20.77;;;-3.10;99.90;;;;;;5034003;28;20176;-64
2023/12/04 04:07:19;;;;;;;30.90;17.80;;;-3.10;99.90;;;;;;5030046;28;20920;-64
2023/12/04 04:09:45;;;;;;;34.53;20.90;;;-3.10;99.90;;;;;;5031591;28;20360;-64
2023/12/04 04:12:11;;;;;;;34.43;18.33;;;-3.10;99.90;;;;;;5030914;28;20539;-64
2023/12/04 04:14:37;;;;;;;34.17;17.80;;;-3.10;99.90;;;;;;5037681;28;20239;-63
2023/12/04 04:17:03;;;;;;;30.20;16.53;;;-3.10;99.90;;;;;;5037039;28;20172;-64
2023/12/04 04:19:29;;;;;;;32.40;16.37;;;-3.10;99.90;;;;;;5022553;28;20420;-63
2023/12/04 04:21:54;;;;;;;38.60;18.30;;;-3.10;99.90;;;;;;5032276;28;20442;-65
2023/12/04 04:24:20;;;;;;;27.63;17.40;;;-3.10;99.90;;;;;;5031654;28;20199;-64
2023/12/04 04:26:46;;;;;;;32.33;18.03;;;-3.20;99.90;;;;;;5031962;28;20202;-63
2023/12/04 04:29:11;;;;;;;27.70;17.37;;;-3.20;99.90;;;;;;5034031;28;20413;-64
2023/12/04 04:31:37;;;;;;;28.77;15.73;;;-3.20;99.90;;;;;;5031450;28;20187;-64
2023/12/04 04:34:03;;;;;;;28.23;15.57;;;-3.20;99.90;;;;;;5032201;28;20210;-63
2023/12/04 04:36:29;;;;;;;26.80;15.67;;;-3.20;99.90;;;;;;5029207;28;20693;-64
2023/12/04 04:38:54;;;;;;;28.20;16.20;;;-3.20;99.90;;;;;;5030950;28;20596;-64
2023/12/04 04:41:20;;;;;;;30.70;15.70;;;-3.20;99.90;;;;;;5030505;28;20472;-64
2023/12/04 04:43:45;;;;;;;33.50;16.30;;;-3.20;99.90;;;;;;5034035;28;20172;-64
2023/12/04 04:46:11;;;;;;;26.63;14.20;;;-3.20;99.90;;;;;;5036143;28;20545;-63
2023/12/04 04:48:37;;;;;;;39.40;17.10;;;-3.20;99.90;;;;;;5028845;28;20261;-63
2023/12/04 04:51:03;;;;;;;26.10;15.40;;;-3.20;99.90;;;;;;5038513;28;20195;-63
2023/12/04 04:53:28;;;;;;;27.23;14.60;;;-3.20;99.90;;;;;;5032246;28;20694;-63
2023/12/04 04:55:54;;;;;;;26.70;14.60;;;-3.20;99.90;;;;;;5032776;28;20509;-63
2023/12/04 04:58:20;;;;;;;27.07;16.07;;;-3.20;99.90;;;;;;5028306;28;20195;-63
2023/12/04 05:00:47;;;;;;;31.83;14.87;;;-3.20;99.90;;;;;;5028311;28;20442;-63
2023/12/04 05:03:12;;;;;;;33.20;15.40;;;-3.20;99.90;;;;;;5035375;28;20174;-64
2023/12/04 05:05:38;;;;;;;25.80;14.50;;;-3.20;99.90;;;;;;5034484;28;20943;-64
2023/12/04 05:08:04;;;;;;;27.90;16.83;;;-3.20;99.90;;;;;;5032138;28;20199;-62
2023/12/04 05:10:29;;;;;;;27.23;14.70;;;-3.10;99.90;;;;;;5026016;28;20608;-64
2023/12/04 05:12:55;;;;;;;26.20;13.60;;;-3.10;99.90;;;;;;5030476;28;20175;-63
2023/12/04 05:15:21;;;;;;;22.50;15.50;;;-3.10;99.90;;;;;;5031361;28;20175;-66
2023/12/04 05:17:47;;;;;;;29.33;14.80;;;-3.10;99.90;;;;;;5030515;28;20483;-65
2023/12/04 05:20:13;;;;;;;28.43;14.80;;;-3.10;99.90;;;;;;5033111;28;20191;-63
2023/12/04 05:22:40;;;;;;;26.37;17.60;;;-3.20;99.90;;;;;;5030052;28;20454;-64
2023/12/04 05:25:06;;;;;;;28.63;15.20;;;-3.20;99.90;;;;;;5031682;28;20521;-65
2023/12/04 05:27:32;;;;;;;27.13;15.23;;;-3.20;99.90;;;;;;5030181;28;20446;-65
2023/12/04 05:29:57;;;;;;;22.33;14.93;;;-3.20;99.90;;;;;;5032598;28;20438;-64
2023/12/04 05:32:23;;;;;;;20.67;13.53;;;-3.30;99.90;;;;;;5032672;28;20254;-64
2023/12/04 05:34:48;;;;;;;23.07;13.20;;;-3.30;99.90;;;;;;5032069;28;20275;-63
2023/12/04 05:37:14;;;;;;;21.80;13.67;;;-3.30;99.90;;;;;;5033514;28;20229;-65
2023/12/04 05:39:39;;;;;;;29.53;14.97;;;-3.30;99.90;;;;;;5028523;28;20716;-63
2023/12/04 05:42:05;;;;;;;21.77;13.90;;;-3.30;99.90;;;;;;5027591;28;20210;-63
2023/12/04 05:44:31;;;;;;;20.33;13.07;;;-3.30;99.90;;;;;;5030176;28;20199;-63
2023/12/04 05:46:57;;;;;;;24.77;13.30;;;-3.30;99.90;;;;;;5028708;28;20188;-63
2023/12/04 05:49:23;;;;;;;21.93;14.37;;;-3.30;99.90;;;;;;5031628;28;20513;-63
2023/12/04 05:51:48;;;;;;;27.47;17.00;;;-3.30;99.90;;;;;;5032224;28;20681;-63
2023/12/04 05:54:14;;;;;;;22.33;13.23;;;-3.30;99.90;;;;;;5030212;28;20176;-63
2023/12/04 05:56:39;;;;;;;26.33;13.13;;;-3.40;99.90;;;;;;5029716;28;20172;-65
2023/12/04 05:59:05;;;;;;;19.43;13.57;;;-3.40;99.90;;;;;;5031698;28;20199;-64
2023/12/04 06:01:30;;;;;;;23.17;14.50;;;-3.40;99.90;;;;;;5032153;28;20222;-64
2023/12/04 06:03:56;;;;;;;25.50;13.73;;;-3.40;99.90;;;;;;5033640;28;20234;-65
2023/12/04 06:06:21;;;;;;;22.80;13.40;;;-3.40;99.90;;;;;;5031205;28;20182;-63
2023/12/04 06:08:47;;;;;;;28.03;13.90;;;-3.30;99.90;;;;;;5033157;28;20209;-65
2023/12/04 06:11:13;;;;;;;25.50;14.53;;;-3.30;99.90;;;;;;5032002;28;20210;-65
2023/12/04 06:13:39;;;;;;;23.70;14.27;;;-3.30;99.90;;;;;;5028660;28;20185;-65
2023/12/04 06:16:05;;;;;;;37.70;15.40;;;-3.20;99.90;;;;;;5026090;28;21035;-65
2023/12/04 06:18:30;;;;;;;27.37;14.43;;;-3.20;99.90;;;;;;5015497;28;20589;-63
2023/12/04 06:20:56;;;;;;;24.53;14.33;;;-3.20;99.90;;;;;;5032772;28;20429;-63
2023/12/04 06:23:22;;;;;;;29.00;16.00;;;-3.20;99.90;;;;;;5035966;28;20235;-63
2023/12/04 06:25:48;;;;;;;23.10;13.87;;;-3.20;99.90;;;;;;5033267;28;20217;-63
2023/12/04 06:28:14;;;;;;;26.13;13.40;;;-3.10;99.90;;;;;;5033325;28;20535;-64
2023/12/04 06:30:40;;;;;;;29.43;16.87;;;-3.10;99.90;;;;;;5025766;28;20435;-63
2023/12/04 06:33:07;;;;;;;24.73;15.60;;;-3.00;99.90;;;;;;5031607;28;20228;-63
2023/12/04 06:35:32;;;;;;;27.93;16.00;;;-3.00;99.90;;;;;;5032949;28;20588;-63
2023/12/04 06:38:03;;;;;;;22.43;14.17;;;-3.00;99.90;;;;;;5033965;28;20968;-65
2023/12/04 06:40:29;;;;;;;28.80;16.70;;;-2.90;99.90;;;;;;5033796;28;20226;-64
2023/12/04 06:42:54;;;;;;;25.60;15.47;;;-2.90;99.90;;;;;;5028537;28;20438;-63
2023/12/04 06:45:21;;;;;;;24.17;14.07;;;-2.90;99.90;;;;;;5029632;28;20406;-64
2023/12/04 06:47:50;;;;;;;19.80;11.63;;;-2.90;99.90;;;;;;5030070;28;20519;-64
2023/12/04 06:50:16;;;;;;;32.03;15.73;;;-2.80;99.90;;;;;;5029414;28;20807;-64
2023/12/04 06:52:42;;;;;;;27.47;15.40;;;-2.80;99.90;;;;;;5033141;28;20483;-64
2023/12/04 06:55:08;;;;;;;27.20;15.00;;;-2.80;99.90;;;;;;5029651;28;20406;-64
2023/12/04 06:57:34;;;;;;;25.27;14.27;;;-2.70;99.90;;;;;;5033886;28;20406;-63
2023/12/04 07:00:00;;;;;;;27.43;13.23;;;-2.70;99.90;;;;;;5029956;28;20446;-64
2023/12/04 07:02:25;;;;;;;27.07;16.20;;;-2.70;99.90;;;;;;5028832;28;20421;-63
2023/12/04 07:04:51;;;;;;;24.90;13.83;;;-2.60;99.90;;;;;;5028934;28;20176;-63
2023/12/04 07:07:16;;;;;;;25.20;15.97;;;-2.60;99.90;;;;;;5028168;28;20200;-63
2023/12/04 07:09:42;;;;;;;24.10;13.90;;;-2.60;99.90;;;;;;5029323;28;20203;-64
2023/12/04 07:12:07;;;;;;;24.53;15.90;;;-2.50;99.90;;;;;;5034033;28;20174;-64
2023/12/04 07:14:33;;;;;;;21.30;12.73;;;-2.50;99.90;;;;;;5035466;28;20175;-62
2023/12/04 07:17:00;;;;;;;18.93;13.33;;;-2.50;99.90;;;;;;5027738;28;20233;-63
2023/12/04 07:19:26;;;;;;;24.57;14.80;;;-2.50;99.90;;;;;;5011536;28;20225;-64
2023/12/04 07:21:52;;;;;;;21.70;12.10;;;-2.40;99.90;;;;;;5028212;28;20873;-64
2023/12/04 07:24:18;;;;;;;20.80;14.17;;;-2.40;99.90;;;;;;5033830;28;20472;-64
2023/12/04 07:26:44;;;;;;;24.10;12.43;;;-2.30;99.90;;;;;;5034891;28;20207;-64
2023/12/04 07:29:09;;;;;;;23.23;14.27;;;-2.30;99.90;;;;;;5033943;28;20415;-64
2023/12/04 07:31:35;;;;;;;19.87;12.83;;;-2.20;99.90;;;;;;5032589;28;20254;-64
2023/12/04 07:34:01;;;;;;;23.67;12.17;;;-2.20;99.90;;;;;;5026437;28;20621;-64
2023/12/04 07:36:28;;;;;;;21.80;12.50;;;-2.20;99.90;;;;;;5035360;28;20167;-64
2023/12/04 07:38:53;;;;;;;20.23;13.50;;;-2.10;99.90;;;;;;5035011;28;20410;-64
2023/12/04 07:41:19;;;;;;;24.33;14.03;;;-2.10;99.90;;;;;;5035311;28;20580;-63
2023/12/04 07:43:45;;;;;;;20.70;14.70;;;-2.10;99.90;;;;;;5033637;28;20414;-64
2023/12/04 07:46:11;;;;;;;26.00;13.80;;;-2.10;99.90;;;;;;5031432;28;20402;-63
2023/12/04 07:48:37;;;;;;;23.10;12.20;;;-2.00;99.90;;;;;;5030238;28;20454;-64
2023/12/04 07:51:03;;;;;;;18.57;12.27;;;-1.90;99.90;;;;;;5037245;28;20441;-62
2023/12/04 07:53:29;;;;;;;32.10;18.73;;;-2.00;99.90;;;;;;5019026;28;20660;-66
2023/12/04 07:55:54;;;;;;;25.60;15.40;;;-1.50;99.90;;;;;;5029702;28;20426;-61
2023/12/04 07:58:21;;;;;;;45.37;21.97;;;-1.60;99.90;;;;;;5030852;28;20214;-66
2023/12/04 08:00:47;;;;;;;23.80;13.10;;;-1.10;99.90;;;;;;5035307;28;20230;-65
2023/12/04 08:03:13;;;;;;;60.80;28.57;;;-1.40;99.90;;;;;;5031803;28;20695;-67
2023/12/04 08:05:38;;;;;;;26.70;16.57;;;-1.30;99.90;;;;;;5035075;28;20437;-66
2023/12/04 08:08:05;;;;;;;17.80;12.07;;;-1.50;99.90;;;;;;5038581;28;20199;-63
2023/12/04 08:10:31;;;;;;;21.30;13.30;;;-1.50;99.90;;;;;;5029777;28;20191;-64
2023/12/04 08:12:57;;;;;;;18.93;12.40;;;-1.60;99.90;;;;;;5032299;28;20406;-64
2023/12/04 08:15:22;;;;;;;23.30;14.37;;;-1.60;99.90;;;;;;5045580;28;20934;-62
2023/12/04 08:17:48;;;;;;;22.60;13.87;;;-1.60;99.90;;;;;;5033511;28;20179;-64
2023/12/04 08:20:14;;;;;;;20.67;12.67;;;-1.60;99.90;;;;;;5031184;28;20682;-62
2023/12/04 08:22:41;;;;;;;26.13;13.73;;;-1.50;99.90;;;;;;5030048;28;20178;-63
2023/12/04 08:25:07;;;;;;;16.17;11.83;;;-1.50;99.90;;;;;;5031647;28;20507;-65
2023/12/04 08:27:33;;;;;;;21.43;11.70;;;-1.50;99.90;;;;;;5029799;28;20461;-64
2023/12/04 08:29:58;;;;;;;19.47;13.30;;;-1.50;99.90;;;;;;5032229;28;20439;-63
2023/12/04 08:32:26;;;;;;;22.00;13.13;;;-1.50;99.90;;;;;;5029322;28;20239;-64
2023/12/04 08:34:52;;;;;;;21.37;13.70;;;-1.40;99.90;;;;;;5035336;28;20171;-64
2023/12/04 08:37:18;;;;;;;20.47;13.37;;;-1.40;99.90;;;;;;5036455;28;20418;-64
2023/12/04 08:39:44;;;;;;;22.23;12.50;;;-1.40;99.90;;;;;;5032658;28;20476;-63
2023/12/04 08:42:10;;;;;;;21.27;13.77;;;-1.40;99.90;;;;;;5014753;28;20414;-64
2023/12/04 08:44:37;;;;;;;20.40;12.03;;;-1.30;99.90;;;;;;5029732;28;20180;-64
2023/12/04 08:47:03;;;;;;;27.80;13.90;;;-1.30;99.90;;;;;;5015225;28;20446;-63
2023/12/04 08:49:28;;;;;;;21.03;12.53;;;-1.30;99.90;;;;;;5034268;28;20402;-63
2023/12/04 08:51:54;;;;;;;20.50;12.70;;;-1.20;99.90;;;;;;5029259;28;20484;-64
2023/12/04 08:54:19;;;;;;;20.90;10.70;;;-1.10;99.90;;;;;;5037765;28;20626;-66
2023/12/04 08:56:45;;;;;;;17.77;11.57;;;-1.00;99.90;;;;;;5029238;28;20180;-63
2023/12/04 08:59:12;;;;;;;15.70;10.87;;;-1.10;99.90;;;;;;5031675;28;20168;-63
2023/12/04 09:01:39;;;;;;;19.33;11.10;;;-1.00;99.90;;;;;;5027076;28;20275;-67
2023/12/04 09:04:04;;;;;;;18.40;12.33;;;-0.90;99.90;;;;;;5033404;28;20410;-66
2023/12/04 09:06:30;;;;;;;15.20;10.40;;;-1.00;99.90;;;;;;5017697;28;20885;-67
2023/12/04 09:08:56;;;;;;;18.87;11.37;;;-0.80;99.90;;;;;;5020656;28;20179;-63
2023/12/04 09:11:21;;;;;;;22.00;12.60;;;-0.80;99.90;;;;;;5034067;28;20452;-63
2023/12/04 09:13:47;;;;;;;18.87;12.80;;;-0.90;99.90;;;;;;5024186;28;20226;-64
2023/12/04 09:16:13;;;;;;;15.53;11.43;;;-0.80;99.90;;;;;;5031268;28;20164;-62
2023/12/04 09:18:39;;;;;;;20.43;11.47;;;-0.80;99.90;;;;;;5032102;28;20199;-63
2023/12/04 09:21:05;;;;;;;17.10;11.37;;;-0.80;99.90;;;;;;5032432;28;20453;-63
2023/12/04 09:23:31;;;;;;;24.27;12.47;;;-0.70;99.90;;;;;;5033032;28;20171;-63
2023/12/04 09:25:56;;;;;;;24.07;11.33;;;-0.80;99.90;;;;;;5030746;28;20406;-63
2023/12/04 09:28:22;;;;;;;21.60;11.73;;;-0.70;99.90;;;;;;5028663;28;20235;-63
2023/12/04 09:30:48;;;;;;;18.17;12.30;;;-0.70;99.90;;;;;;5028163;28;20185;-63
2023/12/04 09:33:13;;;;;;;22.00;13.63;;;-0.80;99.90;;;;;;5027380;28;20174;-67
2023/12/04 09:35:39;;;;;;;62.93;30.83;;;-0.70;99.90;;;;;;5031932;28;20222;-68
2023/12/04 09:38:04;;;;;;;66.43;29.53;;;-0.70;99.90;;;;;;5032263;28;20172;-66
2023/12/04 09:40:30;;;;;;;19.67;12.67;;;-0.50;99.90;;;;;;5031763;28;20199;-66
2023/12/04 09:42:56;;;;;;;20.57;12.50;;;-0.80;99.90;;;;;;5034691;28;20180;-63
2023/12/04 09:45:24;;;;;;;26.70;12.00;;;-0.90;99.90;;;;;;5029273;28;20253;-63
2023/12/04 09:47:49;;;;;;;16.73;11.17;;;-0.90;99.90;;;;;;5030276;28;20458;-63
2023/12/04 09:50:20;;;;;;;24.90;13.17;;;-0.80;99.90;;;;;;5031528;28;20521;-64
2023/12/04 09:52:50;;;;;;;16.70;10.50;;;-0.80;99.90;;;;;;5028305;28;20198;-62
2023/12/04 09:55:16;;;;;;;16.70;11.37;;;-0.80;99.90;;;;;;5032067;28;20431;-62
2023/12/04 09:57:45;;;;;;;22.93;13.03;;;-0.70;99.90;;;;;;5031317;28;20740;-63
2023/12/04 10:00:12;;;;;;;16.87;10.30;;;-0.70;99.90;;;;;;5033142;28;20454;-63
2023/12/04 10:02:39;;;;;;;11.63;9.03;;;-0.70;99.90;;;;;;5031095;28;20418;-63
2023/12/04 10:05:06;;;;;;;21.63;12.80;;;-0.70;99.90;;;;;;5029964;28;20449;-62
2023/12/04 10:07:32;;;;;;;19.50;11.60;;;-0.60;99.90;;;;;;5030137;28;20821;-63
2023/12/04 10:10:01;;;;;;;16.63;11.90;;;-0.50;99.90;;;;;;5029422;28;20438;-63
2023/12/04 10:12:27;;;;;;;20.10;13.00;;;-0.50;99.90;;;;;;5034807;28;20442;-63
2023/12/04 10:15:12;;;;;;;16.00;11.10;;;-0.40;99.90;;;;;;5033487;28;20509;-63
2023/12/04 10:17:40;;;;;;;16.43;11.03;;;-0.50;99.90;;;;;;5030046;28;20422;-63
2023/12/04 10:20:19;;;;;;;18.70;12.20;;;-0.30;99.90;;;;;;5029617;28;20442;-62
2023/12/04 10:23:01;;;;;;;17.33;11.47;;;-0.20;99.90;;;;;;5027290;28;20438;-63
2023/12/04 10:25:29;;;;;;;13.43;8.97;;;-0.30;99.90;;;;;;5017813;28;20411;-61
2023/12/04 10:28:16;;;;;;;17.30;10.73;;;-0.10;99.90;;;;;;5028629;28;20457;-64
2023/12/04 10:30:42;;;;;;;13.03;11.00;;;-0.10;99.90;;;;;;5030751;28;20757;-63
2023/12/04 10:33:10;;;;;;;17.93;12.50;;;0.00;99.90;;;;;;5029774;28;20416;-63
2023/12/04 10:35:37;;;;;;;15.00;10.67;;;0.00;99.90;;;;;;5030650;28;20474;-62
2023/12/04 10:38:03;;;;;;;16.33;10.33;;;-0.10;99.90;;;;;;5030515;28;20421;-63
2023/12/04 10:40:31;;;;;;;16.27;11.67;;;0.00;99.90;;;;;;5028621;28;20456;-63
2023/12/04 10:43:09;;;;;;;20.03;11.73;;;0.00;99.90;;;;;;5029568;28;20556;-63
2023/12/04 10:45:43;;;;;;;18.50;11.80;;;0.10;99.90;;;;;;5033409;28;20445;-63
2023/12/04 10:48:10;;;;;;;17.43;11.97;;;0.30;99.90;;;;;;5030242;28;20568;-66
2023/12/04 10:50:40;;;;;;;22.27;12.00;;;0.20;99.90;;;;;;5030138;28;20465;-63
2023/12/04 10:53:07;;;;;;;16.80;11.13;;;0.30;99.90;;;;;;5030634;28;20425;-63
2023/12/04 10:55:36;;;;;;;20.07;11.73;;;0.30;99.90;;;;;;5034068;28;20489;-63
2023/12/04 10:58:06;;;;;;;16.97;10.90;;;0.40;99.90;;;;;;5034231;28;20502;-63
2023/12/04 11:00:44;;;;;;;13.57;10.73;;;0.40;99.90;;;;;;5035412;28;20464;-64
2023/12/04 11:03:15;;;;;;;17.50;10.47;;;0.40;99.90;;;;;;5035994;28;20780;-63
2023/12/04 11:05:44;;;;;;;17.70;11.33;;;0.60;99.90;;;;;;5016715;28;20448;-64
2023/12/04 11:08:14;;;;;;;15.90;10.70;;;0.60;99.90;;;;;;5033798;28;20596;-63
2023/12/04 11:11:11;;;;;;;15.23;9.67;;;0.40;99.90;;;;;;5035321;28;20435;-63
2023/12/04 11:13:48;;;;;;;14.93;9.47;;;0.40;99.90;;;;;;5038169;28;20406;-63
2023/12/04 11:16:20;;;;;;;17.70;10.60;;;0.30;99.90;;;;;;5038683;28;20770;-63
2023/12/04 11:18:54;;;;;;;15.17;10.57;;;0.40;99.90;;;;;;5035097;28;20418;-63
2023/12/04 11:21:21;;;;;;;13.73;9.60;;;0.30;99.90;;;;;;5032748;28;20766;-64
2023/12/04 11:23:48;;;;;;;15.83;9.80;;;0.20;99.90;;;;;;5033591;28;20430;-64
2023/12/04 11:26:18;;;;;;;14.80;10.33;;;0.30;99.90;;;;;;5035571;28;20418;-64
2023/12/04 11:28:45;;;;;;;16.03;10.47;;;0.30;99.90;;;;;;5035666;28;20503;-63
2023/12/04 11:31:11;;;;;;;15.30;9.73;;;0.30;99.90;;;;;;5035547;28;20438;-63
2023/12/04 11:33:38;;;;;;;16.60;9.67;;;0.30;99.90;;;;;;5040933;28;20417;-63
2023/12/04 11:36:08;;;;;;;14.37;10.30;;;0.10;99.90;;;;;;5032604;28;20421;-63
2023/12/04 11:38:36;;;;;;;16.57;11.00;;;0.10;99.90;;;;;;5015022;28;20426;-63
2023/12/04 11:41:20;;;;;;;14.80;9.80;;;0.20;99.90;;;;;;5033736;28;20445;-64
2023/12/04 11:43:49;;;;;;;19.50;11.23;;;0.40;99.90;;;;;;5034497;28;20879;-64
2023/12/04 11:46:23;;;;;;;14.40;9.70;;;0.40;99.90;;;;;;5035730;28;20909;-63
2023/12/04 11:48:55;;;;;;;14.03;9.70;;;0.40;99.90;;;;;;5036695;28;20461;-68
2023/12/04 11:51:42;;;;;;;11.47;8.30;;;0.50;99.90;;;;;;5037626;28;20443;-67
2023/12/04 11:54:10;;;;;;;17.00;9.73;;;0.40;99.90;;;;;;5037762;28;20888;-64
2023/12/04 11:56:36;;;;;;;15.20;9.90;;;0.50;99.90;;;;;;5040153;28;20438;-63
2023/12/04 11:59:06;;;;;;;16.27;10.67;;;0.40;99.90;;;;;;5040903;28;20820;-66
2023/12/04 12:01:43;;;;;;;13.87;10.30;;;0.70;99.90;;;;;;5032978;28;20446;-65
2023/12/04 12:04:10;;;;;;;13.40;9.73;;;0.70;99.90;;;;;;5035692;28;20416;-62
2023/12/04 12:06:36;;;;;;;12.03;8.90;;;0.90;99.90;;;;;;5037589;28;20411;-63
2023/12/04 12:09:02;;;;;;;13.63;9.90;;;0.70;99.90;;;;;;5037221;28;20420;-63
2023/12/04 12:11:28;;;;;;;13.83;9.07;;;0.70;99.90;;;;;;5042391;28;20488;-63
2023/12/04 12:13:54;;;;;;;13.60;9.67;;;0.70;99.90;;;;;;5037994;28;20723;-63
2023/12/04 12:16:22;;;;;;;13.00;9.27;;;0.70;99.90;;;;;;5030980;28;20525;-63
2023/12/04 12:18:48;;;;;;;13.03;9.17;;;0.70;99.90;;;;;;5033651;28;20410;-63
2023/12/04 12:21:17;;;;;;;13.13;8.47;;;0.60;99.90;;;;;;5035043;28;20459;-64
2023/12/04 12:23:43;;;;;;;12.27;8.47;;;0.50;99.90;;;;;;5033980;28;20480;-63
2023/12/04 12:26:12;;;;;;;14.33;9.43;;;0.50;99.90;;;;;;5039400;28;20919;-63